Impacts TAF Board
For situational awareness. Not to be used for flight planning purposes.
IDs:

KMSP - Minneapolis-St Paul, MN, US

Issued at 0520 UTC 24 Sep 2018
Updated at 0754 UTC 24 Sep 2018
Potential Impact None Slight Moderate High
Time0653Z 24/08Z 24/09Z 24/10Z 24/11Z 24/12Z 24/13Z 24/14Z 24/15Z 24/16Z 24/17Z 24/18Z 24/19Z 24/20Z>>
Type OBS PRVL PRVL PRVL PRVL PRVL PRVL PRVL PRVL PRVL PRVL PRVL PRVL PRVL
VIS 10 >6 >6 >6 >6 >6 >6 >6 >6 >6 >6 >6 >6 >6
CIG 190 200 200 200 200 200 200 200 150 150 150 150 50 50
Cover OVC BKN BKN BKN BKN BKN BKN BKN BKN BKN BKN BKN BKN BKN
FltCat VFR VFR VFR VFR VFR VFR VFR VFR VFR VFR VFR VFR VFR VFR
WX -- -- -- -- -- -- -- -- -- -- -- -- -- --
WDir 160 150 150 150 150 150 150 150 160 160 160 160 200 200
WSpd 5 12 12 12 12 12 12 12 14 14 14 14 12 12
WGst -- -- -- -- -- -- -- -- 22 22 22 22 20 20
Raw TAF
KMSP 240520Z 2406/2512 15012KT P6SM BKN200
  FM241500 16014G22KT P6SM BKN150
  FM241900 20012G20KT P6SM BKN050
  FM242300 25008KT 5SM -RA OVC025
  FM250300 32006KT P6SM OVC012


Raw METAR
KMSP 240653Z 16005KT 10SM OVC190 16/11 A2997 RMK AO2 SLP145 T01560111
KMSP 240553Z 15011KT 10SM OVC250 16/12 A2995 RMK AO2 SLP140 T01610117 10222 20161 402440106 50000
KMSP 240453Z 15012KT 10SM OVC250 17/12 A2996 RMK AO2 SLP143 T01670117

METAR Board
Radar Display
Forecast Discussion
For situational awareness. Not to be used for flight planning purposes.